Time;durP1;ratioP1;P1;durP2;ratioP2;P2;SDS_P1;SDS_P2;PMS_P1;PMS_P2;Temp;Humidity;BMP_temperature;BMP_pressure;BME280_temperature;BME280_humidity;BME280_pressure;Samples;Min_cycle;Max_cycle;Signal;HPM_P1;HPM_P2
2023/10/03 00:00:15;;;;;;;24.20;9.52;;;;;;;16.01;96.96;95284.00;5038116;28;20311;-80
2023/10/03 00:02:41;;;;;;;23.42;8.27;;;;;;;15.96;99.74;95295.41;5057436;28;20029;-80
2023/10/03 00:05:08;;;;;;;19.85;8.40;;;;;;;15.92;100.00;95297.84;5056832;28;20036;-80
2023/10/03 00:07:34;;;;;;;22.52;7.95;;;;;;;15.89;100.00;95301.00;5054326;28;20397;-80
2023/10/03 00:09:59;;;;;;;22.77;8.30;;;;;;;15.92;87.77;95300.47;5031559;28;20115;-80
2023/10/03 00:12:25;;;;;;;20.10;8.13;;;;;;;15.92;86.72;95291.75;5024913;28;20384;-80
2023/10/03 00:14:51;;;;;;;23.30;9.13;;;;;;;15.92;81.84;95287.28;5056559;28;20044;-80
2023/10/03 00:17:16;;;;;;;25.25;9.02;;;;;;;15.93;83.06;95294.13;5056932;28;20029;-80
2023/10/03 00:19:42;;;;;;;27.63;8.05;;;;;;;15.73;88.17;95287.13;5057025;28;20032;-80
2023/10/03 00:22:07;;;;;;;22.70;8.45;;;;;;;15.73;84.63;95288.97;5056849;28;20025;-80
2023/10/03 00:24:32;;;;;;;22.50;8.55;;;;;;;15.78;84.63;95291.56;5040309;28;20036;-80
2023/10/03 00:26:59;;;;;;;20.95;8.10;;;;;;;15.75;83.57;95290.28;5057620;28;20057;-80
2023/10/03 00:29:29;;;;;;;20.25;7.13;;;;;;;15.69;83.31;95286.91;5057930;28;20059;-80
2023/10/03 00:31:58;;;;;;;19.13;7.55;;;;;;;15.67;85.98;95281.09;5057994;28;20033;-80
2023/10/03 00:34:24;;;;;;;21.40;8.73;;;;;;;15.76;89.76;95277.84;5056917;28;20079;-80
2023/10/03 00:36:52;;;;;;;24.63;8.00;;;;;;;15.81;86.88;95275.19;5055782;28;20037;-80
2023/10/03 00:39:17;;;;;;;19.42;7.30;;;;;;;15.94;79.90;95271.91;5054758;28;20039;-80
2023/10/03 00:41:44;;;;;;;20.75;8.43;;;;;;;15.81;83.91;95262.75;5038678;28;20036;-80
2023/10/03 00:44:10;;;;;;;19.73;7.88;;;;;;;15.79;84.31;95267.53;5054583;28;20029;-80
2023/10/03 00:46:35;;;;;;;20.50;7.45;;;;;;;15.74;82.13;95262.28;5038311;28;20037;-80
2023/10/03 00:49:10;;;;;;;20.02;7.70;;;;;;;15.75;83.06;95257.78;5054480;28;20358;-80
2023/10/03 00:51:37;;;;;;;23.30;8.07;;;;;;;15.86;80.72;95253.97;5054479;28;20552;-80
2023/10/03 00:54:03;;;;;;;20.23;7.40;;;;;;;15.82;82.00;95261.66;5038020;28;20388;-80
2023/10/03 00:56:30;;;;;;;16.60;7.45;;;;;;;15.77;83.09;95260.94;5038088;28;20025;-80
2023/10/03 00:58:57;;;;;;;24.15;9.20;;;;;;;15.99;81.59;95260.50;5054214;28;20032;-80
2023/10/03 01:01:22;;;;;;;19.15;7.45;;;;;;;15.93;81.53;95259.78;5055514;28;20033;-80
2023/10/03 01:03:48;;;;;;;21.98;7.60;;;;;;;15.82;81.63;95253.75;5053681;28;20066;-80
2023/10/03 01:06:13;;;;;;;18.77;7.47;;;;;;;15.90;75.86;95247.09;5054246;28;20036;-80
2023/10/03 01:08:40;;;;;;;20.02;7.47;;;;;;;16.21;69.80;95243.38;5053985;28;20025;-80
2023/10/03 01:11:07;;;;;;;16.20;6.93;;;;;;;16.01;73.88;95242.53;5054025;28;20095;-80
2023/10/03 01:13:34;;;;;;;16.98;7.30;;;;;;;15.99;71.13;95243.84;5037883;28;20661;-80
2023/10/03 01:15:59;;;;;;;18.60;7.25;;;;;;;15.91;75.49;95238.09;5054193;28;20185;-80
2023/10/03 01:18:27;;;;;;;17.48;7.50;;;;;;;15.73;77.59;95239.59;5054129;28;20107;-80
2023/10/03 01:21:00;;;;;;;17.58;6.95;;;;;;;15.70;77.73;95242.75;5054151;28;20029;-80
2023/10/03 01:23:30;;;;;;;18.73;7.03;;;;;;;15.58;79.41;95237.84;5054133;28;20039;-80
2023/10/03 01:25:55;;;;;;;20.92;7.07;;;;;;;15.55;77.10;95238.41;5054248;28;20039;-80
2023/10/03 01:28:20;;;;;;;18.55;7.13;;;;;;;15.62;81.02;95240.72;5037271;28;20032;-80
2023/10/03 01:30:46;;;;;;;19.27;6.88;;;;;;;15.64;81.39;95228.03;5055043;28;20033;-80
2023/10/03 01:33:11;;;;;;;19.02;7.15;;;;;;;15.58;78.85;95229.16;5055043;28;20043;-80
2023/10/03 01:35:37;;;;;;;19.73;6.88;;;;;;;15.62;77.84;95228.28;5053978;28;20036;-80
2023/10/03 01:38:05;;;;;;;15.25;5.57;;;;;;;15.62;74.93;95230.94;5053624;28;20036;-80
2023/10/03 01:40:30;;;;;;;14.52;5.40;;;;;;;15.55;73.00;95219.91;5053479;28;20492;-80
2023/10/03 01:42:56;;;;;;;17.20;6.20;;;;;;;15.65;67.96;95227.75;5037167;28;20103;-80
2023/10/03 01:45:23;;;;;;;15.25;5.85;;;;;;;15.69;67.40;95218.22;5037096;28;20024;-80
2023/10/03 01:47:52;;;;;;;14.23;5.22;;;;;;;15.73;66.23;95223.72;5037158;28;20033;-80
2023/10/03 01:50:19;;;;;;;15.25;5.85;;;;;;;15.62;66.66;95214.31;5056019;28;20047;-80
2023/10/03 01:52:46;;;;;;;16.60;6.25;;;;;;;15.79;68.85;95219.97;5055286;28;20029;-80
2023/10/03 01:55:12;;;;;;;17.00;6.00;;;;;;;15.75;69.78;95213.66;5055612;28;20112;-80
2023/10/03 01:57:41;;;;;;;16.10;5.70;;;;;;;15.67;69.77;95217.69;5055554;28;20029;-80
2023/10/03 02:00:28;;;;;;;15.93;5.78;;;;;;;15.52;69.69;95215.19;5055369;28;20048;-80
2023/10/03 02:03:05;;;;;;;13.43;5.43;;;;;;;15.56;67.95;95208.28;5055402;28;20391;-80
2023/10/03 02:05:31;;;;;;;16.65;6.22;;;;;;;15.80;66.20;95215.47;5055610;28;20029;-80
2023/10/03 02:07:58;;;;;;;19.23;6.63;;;;;;;15.70;66.40;95213.69;5055191;28;20024;-80
2023/10/03 02:10:23;;;;;;;15.32;5.38;;;;;;;15.87;65.49;95204.59;5056260;28;20067;-80
2023/10/03 02:12:49;;;;;;;14.70;5.68;;;;;;;15.66;67.07;95196.84;5035365;28;20159;-80
2023/10/03 02:15:23;;;;;;;11.77;5.35;;;;;;;15.55;68.42;95201.44;5035418;28;20389;-80
2023/10/03 02:17:55;;;;;;;16.13;5.55;;;;;;;15.48;68.77;95200.97;5055766;28;20025;-80
2023/10/03 02:20:25;;;;;;;15.57;5.88;;;;;;;15.61;68.47;95194.25;5055931;28;20405;-80
2023/10/03 02:22:58;;;;;;;14.52;5.93;;;;;;;15.61;73.19;95188.97;5023476;28;20115;-80
2023/10/03 02:25:28;;;;;;;14.02;5.63;;;;;;;15.49;71.22;95184.84;5043355;28;20071;-80
2023/10/03 02:27:54;;;;;;;12.02;5.30;;;;;;;15.45;71.54;95183.03;5052719;28;20074;-80
2023/10/03 02:30:23;;;;;;;12.88;5.55;;;;;;;15.59;69.23;95191.88;5042143;28;20074;-80
2023/10/03 02:33:04;;;;;;;12.55;5.50;;;;;;;15.55;67.18;95188.22;5042154;28;20028;-80
2023/10/03 02:35:29;;;;;;;16.45;5.82;;;;;;;15.56;64.11;95176.59;5059153;28;20120;-80
2023/10/03 02:37:56;;;;;;;15.18;5.28;;;;;;;15.68;63.27;95186.78;5059976;28;20116;-80
2023/10/03 02:40:23;;;;;;;18.27;6.80;;;;;;;15.95;62.13;95180.19;5058963;28;20051;-80
2023/10/03 02:42:51;;;;;;;13.13;5.85;;;;;;;15.82;63.17;95186.91;5060019;28;20017;-80
2023/10/03 02:45:22;;;;;;;14.25;5.70;;;;;;;15.91;60.93;95179.19;5058860;28;20098;-80
2023/10/03 02:47:48;;;;;;;15.60;5.90;;;;;;;15.78;60.27;95181.41;5058665;28;20037;-80
2023/10/03 02:50:15;;;;;;;18.42;7.25;;;;;;;15.86;59.38;95169.44;5059859;28;20032;-80
2023/10/03 02:52:41;;;;;;;17.00;6.45;;;;;;;16.02;59.33;95174.56;5059005;28;20025;-80
2023/10/03 02:55:12;;;;;;;19.52;6.78;;;;;;;16.15;57.44;95171.25;5058721;28;20025;-80
2023/10/03 02:57:38;;;;;;;21.38;6.93;;;;;;;16.23;57.12;95164.56;5058594;28;20025;-80
2023/10/03 03:00:15;;;;;;;18.45;7.35;;;;;;;16.23;57.72;95167.19;5059764;28;20323;-80
2023/10/03 03:02:47;;;;;;;18.77;7.15;;;;;;;16.31;57.86;95157.84;5043531;28;20025;-80
2023/10/03 03:05:17;;;;;;;18.63;6.72;;;;;;;16.09;60.96;95157.31;5042008;28;20024;-80
2023/10/03 03:07:46;;;;;;;17.63;7.47;;;;;;;15.86;60.42;95156.22;5059448;28;20071;-80
2023/10/03 03:10:17;;;;;;;16.20;6.45;;;;;;;15.90;61.76;95159.91;5058404;28;20075;-80
2023/10/03 03:12:46;;;;;;;17.25;6.50;;;;;;;15.66;61.26;95151.94;5058415;28;20024;-80
2023/10/03 03:15:22;;;;;;;18.58;7.25;;;;;;;15.57;61.51;95153.63;5041943;28;20021;-80
2023/10/03 03:17:51;;;;;;;21.25;6.90;;;;;;;15.59;59.92;95152.25;5058158;28;20033;-80
2023/10/03 03:20:20;;;;;;;19.23;8.10;;;;;;;15.36;61.71;95146.69;5041837;28;20163;-80
2023/10/03 03:22:47;;;;;;;20.58;6.88;;;;;;;15.31;61.96;95151.22;5058102;28;20025;-80
2023/10/03 03:25:19;;;;;;;20.58;6.97;;;;;;;15.27;61.77;95151.75;5058105;28;20036;-80
2023/10/03 03:27:45;;;;;;;17.70;7.10;;;;;;;15.34;60.38;95146.16;5057859;28;20462;-80
2023/10/03 03:32:53;;;;;;;21.23;7.60;;;;;;;15.18;61.99;95139.44;5058018;28;20036;-80
2023/10/03 03:35:22;;;;;;;19.73;7.78;;;;;;;15.15;62.03;95146.06;5058124;28;20036;-80
2023/10/03 03:37:48;;;;;;;20.73;7.70;;;;;;;15.33;60.54;95136.66;5057411;28;20037;-80
2023/10/03 03:40:25;;;;;;;17.15;6.82;;;;;;;15.18;61.16;95142.88;5059000;28;20438;-80
2023/10/03 03:42:51;;;;;;;16.52;6.43;;;;;;;15.18;61.40;95145.50;5057902;28;20074;-80
2023/10/03 03:45:21;;;;;;;18.30;6.60;;;;;;;15.19;61.34;95141.00;5041488;28;20031;-80
2023/10/03 03:47:50;;;;;;;19.55;7.38;;;;;;;15.10;62.09;95132.91;5057623;28;20457;-80
2023/10/03 03:50:17;;;;;;;22.13;8.25;;;;;;;15.08;60.69;95140.31;5041656;28;20025;-80
2023/10/03 03:52:43;;;;;;;18.58;7.25;;;;;;;15.01;60.87;95131.94;5057488;28;20439;-80
2023/10/03 03:55:08;;;;;;;23.33;8.20;;;;;;;15.10;60.33;95136.34;5041189;28;20031;-80
2023/10/03 03:57:34;;;;;;;20.98;8.00;;;;;;;15.35;59.63;95131.91;5057374;28;20025;-80
2023/10/03 04:00:10;;;;;;;20.88;7.70;;;;;;;15.27;59.98;95128.00;5057381;28;20025;-80
2023/10/03 04:02:36;;;;;;;19.73;6.90;;;;;;;15.17;61.38;95133.38;5057447;28;20075;-80
2023/10/03 04:05:08;;;;;;;18.73;6.60;;;;;;;15.12;62.28;95128.13;5057322;28;20028;-81
2023/10/03 04:07:38;;;;;;;17.58;6.63;;;;;;;14.95;62.81;95128.56;5057215;28;20063;-81
2023/10/03 04:10:06;;;;;;;19.33;7.07;;;;;;;14.92;62.79;95131.72;5056719;28;20028;-81
2023/10/03 04:12:38;;;;;;;17.98;7.20;;;;;;;14.94;62.46;95132.25;5038925;28;20030;-81
2023/10/03 04:15:05;;;;;;;18.38;6.53;;;;;;;15.04;69.11;95129.50;5037434;28;20088;-81
2023/10/03 04:17:33;;;;;;;19.77;6.63;;;;;;;15.28;70.53;95123.50;5037190;28;20025;-81
2023/10/03 04:19:59;;;;;;;19.50;6.78;;;;;;;15.07;69.67;95117.63;5037098;28;20030;-81
2023/10/03 04:22:27;;;;;;;19.00;6.95;;;;;;;15.07;70.51;95125.53;5037014;28;20068;-81
2023/10/03 04:24:53;;;;;;;16.40;6.68;;;;;;;15.02;69.76;95126.38;5047159;28;20319;-81
2023/10/03 04:27:18;;;;;;;19.38;7.13;;;;;;;14.98;68.16;95122.72;5052480;28;20017;-81
2023/10/03 04:29:44;;;;;;;18.55;7.05;;;;;;;15.31;65.74;95122.94;5045752;28;20112;-81
2023/10/03 04:32:10;;;;;;;22.02;7.88;;;;;;;15.24;64.80;95118.00;5049483;28;20389;-81
2023/10/03 04:34:35;;;;;;;23.42;7.82;;;;;;;15.21;62.89;95117.78;5056770;28;20025;-81
2023/10/03 04:37:01;;;;;;;21.30;7.30;;;;;;;15.26;62.54;95117.72;5056628;28;20078;-81
2023/10/03 04:39:26;;;;;;;20.25;6.80;;;;;;;15.38;64.40;95120.78;5039399;28;20039;-81
2023/10/03 04:41:53;;;;;;;21.95;7.85;;;;;;;15.27;65.97;95116.66;5040192;28;20415;-81
2023/10/03 04:44:18;;;;;;;21.25;7.15;;;;;;;15.15;66.36;95117.03;5056616;28;20303;-81
2023/10/03 04:46:45;;;;;;;18.35;6.85;;;;;;;15.04;66.30;95113.69;5056442;28;20032;-81
2023/10/03 04:49:10;;;;;;;17.13;6.13;;;;;;;15.01;67.83;95111.59;5057442;28;20021;-81
2023/10/03 04:51:37;;;;;;;23.75;7.35;;;;;;;15.07;65.19;95112.34;5039633;28;20021;-81
2023/10/03 04:54:02;;;;;;;20.42;7.28;;;;;;;15.06;65.46;95108.13;5039834;28;20021;-81
2023/10/03 04:56:29;;;;;;;21.90;6.60;;;;;;;15.10;66.56;95107.31;5038395;28;20025;-80
2023/10/03 04:58:55;;;;;;;24.27;7.00;;;;;;;15.17;64.94;95114.09;5055823;28;20040;-80
2023/10/03 05:01:20;;;;;;;13.70;5.85;;;;;;;14.99;65.32;95108.47;5020047;28;20083;-80
2023/10/03 05:03:46;;;;;;;18.95;5.93;;;;;;;14.98;65.86;95106.88;5036235;28;20427;-80
2023/10/03 05:06:11;;;;;;;17.58;6.80;;;;;;;15.15;65.24;95105.69;5036005;28;20086;-80
2023/10/03 05:08:37;;;;;;;16.67;6.50;;;;;;;15.03;66.56;95106.06;5037214;28;20346;-81
2023/10/03 05:11:03;;;;;;;18.63;6.25;;;;;;;14.86;67.91;95109.09;5037330;28;20029;-81
2023/10/03 05:13:29;;;;;;;20.58;5.85;;;;;;;14.91;68.95;95107.19;5019780;28;20033;-81
2023/10/03 05:15:54;;;;;;;16.15;5.95;;;;;;;14.79;69.78;95107.56;5039651;28;20766;-81
2023/10/03 05:18:20;;;;;;;18.00;5.85;;;;;;;14.79;71.18;95112.03;5036902;28;20044;-81
2023/10/03 05:20:45;;;;;;;17.35;6.28;;;;;;;14.65;74.29;95112.63;5036089;28;20037;-81
2023/10/03 05:23:15;;;;;;;17.58;6.63;;;;;;;14.60;72.48;95117.94;5035685;28;20048;-81
2023/10/03 05:25:43;;;;;;;17.63;6.50;;;;;;;14.90;70.55;95110.09;5036114;28;20328;-81
2023/10/03 05:28:11;;;;;;;17.25;5.88;;;;;;;14.80;71.71;95113.59;5035762;28;20025;-80
2023/10/03 05:30:38;;;;;;;11.93;5.30;;;;;;;15.16;70.92;95115.19;5035833;28;20112;-81
2023/10/03 05:33:06;;;;;;;17.48;6.60;;;;;;;15.29;70.90;95111.88;5035738;28;20072;-81
2023/10/03 05:35:32;;;;;;;18.52;6.75;;;;;;;15.35;71.23;95113.44;5035665;28;20347;-81
2023/10/03 05:37:57;;;;;;;13.43;5.43;;;;;;;15.30;70.99;95115.31;5035661;28;20025;-81
2023/10/03 05:40:23;;;;;;;15.80;6.40;;;;;;;15.45;68.83;95107.25;5035565;28;20397;-81
2023/10/03 05:42:49;;;;;;;24.10;6.72;;;;;;;15.55;70.42;95103.72;5036834;28;20060;-81
2023/10/03 05:45:15;;;;;;;18.77;7.15;;;;;;;15.63;70.54;95108.38;5035544;28;20513;-81
2023/10/03 05:47:45;;;;;;;22.17;7.30;;;;;;;15.79;73.01;95108.22;5035544;28;20025;-81
2023/10/03 05:50:15;;;;;;;16.13;6.28;;;;;;;15.82;75.27;95108.44;5018543;28;20030;-81
2023/10/03 05:52:43;;;;;;;19.50;6.78;;;;;;;15.93;75.58;95103.88;5019087;28;20132;-81
2023/10/03 05:55:09;;;;;;;15.38;5.82;;;;;;;16.10;77.01;95103.38;5019533;28;20040;-81
2023/10/03 05:57:37;;;;;;;16.70;6.18;;;;;;;16.15;80.29;95102.53;5018883;28;20029;-81
2023/10/03 06:00:03;;;;;;;15.00;5.80;;;;;;;16.27;80.53;95106.59;5036022;28;20464;-80
2023/10/03 06:02:28;;;;;;;13.68;5.57;;;;;;;16.41;87.69;95107.47;5019213;28;20029;-81
2023/10/03 06:04:54;;;;;;;14.70;6.10;;;;;;;16.50;88.07;95110.25;5035419;28;20060;-81
2023/10/03 06:07:19;;;;;;;12.68;5.45;;;;;;;16.68;85.78;95106.81;5035204;28;20091;-81
2023/10/03 06:09:45;;;;;;;15.32;6.15;;;;;;;16.79;78.94;95118.03;5035285;28;20060;-81
2023/10/03 06:12:10;;;;;;;14.68;6.03;;;;;;;16.86;72.41;95122.16;5036439;28;20140;-81
2023/10/03 06:14:36;;;;;;;15.73;6.15;;;;;;;16.90;71.10;95117.88;5035343;28;20033;-81
2023/10/03 06:17:02;;;;;;;16.58;7.07;;;;;;;16.96;72.07;95122.78;5036432;28;20116;-81
2023/10/03 06:19:28;;;;;;;17.58;6.65;;;;;;;17.13;71.79;95118.84;5018942;28;20038;-81
2023/10/03 06:21:54;;;;;;;16.15;6.13;;;;;;;17.20;77.53;95113.97;5035240;28;20037;-81
2023/10/03 06:24:20;;;;;;;15.93;6.07;;;;;;;17.34;77.11;95124.59;5019096;28;20124;-80
2023/10/03 06:26:47;;;;;;;17.50;6.57;;;;;;;17.41;78.52;95126.09;5018894;28;20191;-81
2023/10/03 06:29:15;;;;;;;14.18;6.20;;;;;;;17.54;80.45;95122.66;5035050;28;20045;-81
2023/10/03 06:31:40;;;;;;;14.52;5.57;;;;;;;17.59;82.62;95127.88;5019123;28;20431;-81
2023/10/03 06:34:05;;;;;;;15.25;6.45;;;;;;;17.59;82.23;95124.44;5035256;28;20037;-80
2023/10/03 06:36:31;;;;;;;12.40;5.72;;;;;;;17.57;83.20;95130.03;5035337;28;20438;-80
2023/10/03 06:38:57;;;;;;;11.48;5.15;;;;;;;17.70;79.83;95133.00;5034991;28;20029;-81
2023/10/03 06:41:25;;;;;;;14.98;5.22;;;;;;;17.76;81.46;95129.94;5034993;28;20064;-81
2023/10/03 06:43:51;;;;;;;14.75;5.60;;;;;;;18.02;83.01;95131.31;5034994;28;20033;-81
2023/10/03 06:46:17;;;;;;;14.57;5.32;;;;;;;18.16;87.75;95137.41;5051883;28;20427;-81
2023/10/03 06:48:46;;;;;;;12.90;5.43;;;;;;;18.24;84.23;95135.94;5034905;28;20032;-81
2023/10/03 06:51:12;;;;;;;9.15;4.45;;;;;;;18.42;80.16;95131.59;5035025;28;20398;-81
2023/10/03 06:53:38;;;;;;;12.02;5.25;;;;;;;18.57;83.23;95142.94;5034910;28;20030;-81
2023/10/03 06:56:03;;;;;;;14.45;5.57;;;;;;;18.69;85.35;95135.25;5034995;28;20346;-81
2023/10/03 06:58:29;;;;;;;14.25;6.00;;;;;;;18.81;87.71;95136.59;5035947;28;20076;-81
2023/10/03 07:00:55;;;;;;;15.77;6.07;;;;;;;18.41;93.59;95137.97;5018681;28;20040;-81
2023/10/03 07:03:22;;;;;;;14.38;6.28;;;;;;;18.62;87.18;95145.47;5037745;28;20374;-81
2023/10/03 07:05:47;;;;;;;13.82;6.20;;;;;;;18.51;87.46;95135.13;5038599;28;20079;-81
2023/10/03 07:08:13;;;;;;;11.27;5.18;;;;;;;18.56;95.00;95141.38;5038631;28;20029;-81
2023/10/03 07:10:41;;;;;;;12.13;5.38;;;;;;;18.74;97.35;95140.44;5038454;28;20453;-81
2023/10/03 07:13:07;;;;;;;17.33;6.15;;;;;;;18.72;99.83;95147.91;5038422;28;20110;-81
2023/10/03 07:15:33;;;;;;;15.02;6.55;;;;;;;18.75;95.95;95144.66;5055179;28;20067;-81
2023/10/03 07:17:58;;;;;;;16.40;6.50;;;;;;;18.69;81.54;95145.88;5038433;28;20029;-81
2023/10/03 07:20:24;;;;;;;14.98;6.32;;;;;;;18.53;89.48;95141.97;5021925;28;20029;-81
2023/10/03 07:22:49;;;;;;;16.77;6.90;;;;;;;18.36;83.79;95138.06;5038277;28;20044;-81
2023/10/03 07:25:16;;;;;;;15.50;6.53;;;;;;;18.22;98.96;95144.22;5055067;28;20033;-81
2023/10/03 07:27:41;;;;;;;17.25;6.13;;;;;;;18.39;92.56;95142.00;5038087;28;20052;-81
2023/10/03 07:30:08;;;;;;;12.43;5.65;;;;;;;18.73;82.64;95144.19;5039268;28;20030;-81
2023/10/03 07:32:34;;;;;;;14.98;6.35;;;;;;;18.79;85.10;95150.16;5039129;28;20029;-81
2023/10/03 07:34:59;;;;;;;12.48;5.80;;;;;;;19.10;79.18;95146.03;5037998;28;20389;-81
2023/10/03 07:37:25;;;;;;;13.77;5.50;;;;;;;19.05;77.70;95147.72;5037763;28;20033;-81
2023/10/03 07:39:50;;;;;;;11.57;5.70;;;;;;;19.32;71.96;95151.31;5037679;28;20321;-81
2023/10/03 07:42:17;;;;;;;16.17;6.00;;;;;;;19.36;67.90;95151.50;5038237;28;20025;-81
2023/10/03 07:44:46;;;;;;;14.80;5.68;;;;;;;19.52;66.81;95151.13;5038973;28;20079;-81
2023/10/03 07:47:13;;;;;;;15.27;5.78;;;;;;;19.45;67.35;95149.69;5037770;28;20055;-81
2023/10/03 07:49:42;;;;;;;15.40;6.45;;;;;;;19.47;66.34;95146.72;5039118;28;20025;-81
2023/10/03 07:52:07;;;;;;;15.23;5.90;;;;;;;19.45;65.31;95149.69;5037806;28;20132;-81
2023/10/03 07:54:36;;;;;;;15.57;5.25;;;;;;;19.52;65.99;95148.47;5038925;28;20075;-81
2023/10/03 07:57:05;;;;;;;15.32;5.85;;;;;;;19.63;64.33;95150.53;5037503;28;20449;-81
2023/10/03 07:59:31;;;;;;;14.18;5.75;;;;;;;19.58;65.27;95150.69;5037570;28;20493;-81
2023/10/03 08:01:57;;;;;;;17.70;5.90;;;;;;;19.82;63.67;95152.22;5037609;28;20029;-81
2023/10/03 08:04:23;;;;;;;11.13;4.78;;;;;;;20.02;63.69;95142.94;5037585;28;20026;-81
2023/10/03 08:06:49;;;;;;;12.68;5.40;;;;;;;20.26;62.79;95141.72;5037393;28;20347;-81
2023/10/03 08:09:15;;;;;;;12.05;5.25;;;;;;;20.51;64.82;95144.72;5037390;28;20027;-81
2023/10/03 08:11:40;;;;;;;15.40;5.93;;;;;;;20.61;62.02;95143.63;5021148;28;20025;-81
2023/10/03 08:14:11;;;;;;;13.65;5.63;;;;;;;20.49;63.13;95149.59;5036189;28;20381;-81
2023/10/03 08:16:40;;;;;;;13.38;5.65;;;;;;;20.57;68.72;95146.13;5037325;28;20435;-81
2023/10/03 08:19:08;;;;;;;17.10;5.30;;;;;;;20.74;65.86;95149.94;5036974;28;20049;-81
2023/10/03 08:21:34;;;;;;;14.98;5.55;;;;;;;20.73;69.12;95146.47;5038332;28;20034;-81
2023/10/03 08:24:09;;;;;;;12.02;5.43;;;;;;;20.84;69.03;95154.19;5037130;28;20036;-81
2023/10/03 08:26:36;;;;;;;11.55;5.07;;;;;;;20.88;66.65;95157.78;5037149;28;20450;-81
2023/10/03 08:29:04;;;;;;;14.82;5.32;;;;;;;20.92;64.87;95153.38;5036834;28;20026;-81
2023/10/03 08:31:32;;;;;;;14.68;5.50;;;;;;;21.13;65.84;95161.53;5037042;28;20025;-81
2023/10/03 08:33:58;;;;;;;11.70;5.38;;;;;;;21.27;74.17;95156.03;5036856;28;20033;-81
2023/10/03 08:36:27;;;;;;;12.38;5.40;;;;;;;21.33;72.20;95149.41;5036873;28;20151;-81
2023/10/03 08:38:57;;;;;;;13.38;5.15;;;;;;;21.37;67.50;95160.25;5036685;28;20163;-81
2023/10/03 08:41:35;;;;;;;14.50;5.55;;;;;;;21.43;64.90;95152.84;5037487;28;20052;-81
2023/10/03 08:44:00;;;;;;;15.25;5.35;;;;;;;21.56;64.60;95156.41;5036758;28;20036;-81
2023/10/03 08:46:29;;;;;;;13.52;5.15;;;;;;;21.47;64.25;95151.13;5036649;28;20032;-81
2023/10/03 08:49:00;;;;;;;9.68;4.75;;;;;;;21.57;65.71;95157.97;5020149;28;20033;-81
2023/10/03 08:51:32;;;;;;;12.90;5.20;;;;;;;21.67;64.50;95160.34;5036611;28;20359;-81
2023/10/03 08:54:10;;;;;;;13.55;5.28;;;;;;;21.74;62.87;95157.97;5036493;28;20044;-81
2023/10/03 08:56:36;;;;;;;10.55;5.03;;;;;;;21.94;63.90;95153.03;5036607;28;20029;-81
2023/10/03 08:59:09;;;;;;;15.52;5.25;;;;;;;22.03;63.95;95161.78;5019989;28;20098;-81
2023/10/03 09:01:39;;;;;;;15.07;5.93;;;;;;;22.17;65.98;95153.53;5037523;28;20320;-81
2023/10/03 09:04:15;;;;;;;15.65;5.63;;;;;;;22.37;67.48;95155.78;5036356;28;20029;-81
2023/10/03 09:06:51;;;;;;;22.05;6.32;;;;;;;22.01;65.34;95158.63;5036520;28;20031;-81
2023/10/03 09:09:16;;;;;;;12.57;5.43;;;;;;;22.27;67.07;95154.28;5020165;28;20117;-81
2023/10/03 09:11:44;;;;;;;15.27;5.57;;;;;;;22.47;68.49;95160.75;5036190;28;20104;-81
2023/10/03 09:14:19;;;;;;;14.70;6.53;;;;;;;22.46;67.50;95161.88;5036312;28;20399;-81
2023/10/03 09:16:50;;;;;;;14.02;5.53;;;;;;;22.59;66.92;95150.19;5036268;28;20031;-81
2023/10/03 09:19:26;;;;;;;10.88;5.45;;;;;;;22.67;66.87;95151.22;5052851;28;20033;-81
2023/10/03 09:21:52;;;;;;;14.77;6.18;;;;;;;22.70;69.43;95155.13;5036141;28;20033;-81
2023/10/03 09:24:22;;;;;;;12.27;5.75;;;;;;;22.79;66.83;95155.06;5036175;28;20036;-81
2023/10/03 09:26:54;;;;;;;13.27;5.57;;;;;;;22.91;67.25;95152.44;5036076;28;20033;-81
2023/10/03 09:29:32;;;;;;;17.23;5.40;;;;;;;23.02;68.11;95155.50;5035955;28;20029;-81
2023/10/03 09:32:12;;;;;;;11.68;5.85;;;;;;;23.07;65.80;95154.50;5036945;28;20033;-81
2023/10/03 09:34:40;;;;;;;14.13;5.47;;;;;;;23.25;65.79;95152.47;5035987;28;20033;-82
2023/10/03 09:37:06;;;;;;;14.82;4.95;;;;;;;23.40;65.40;95153.78;5035867;28;20451;-81
2023/10/03 09:39:39;;;;;;;11.40;5.35;;;;;;;23.28;64.44;95149.94;5035752;28;20072;-82
2023/10/03 09:42:08;;;;;;;11.77;5.45;;;;;;;23.43;63.64;95153.09;5035807;28;20029;-81
2023/10/03 09:44:37;;;;;;;19.80;6.03;;;;;;;23.20;63.26;95150.78;5035959;28;20033;-81
2023/10/03 09:47:04;;;;;;;15.73;6.00;;;;;;;23.48;63.21;95149.44;5035540;28;20044;-82
2023/10/03 09:49:38;;;;;;;15.48;5.30;;;;;;;23.70;63.83;95156.28;5036740;28;20030;-81
2023/10/03 09:52:26;;;;;;;11.95;4.97;;;;;;;23.88;63.31;95154.16;5036369;28;20025;-81
2023/10/03 09:54:59;;;;;;;9.50;5.25;;;;;;;23.96;64.11;95157.88;5036891;28;20037;-82
2023/10/03 09:57:28;;;;;;;10.60;5.50;;;;;;;23.98;61.50;95151.06;5019759;28;20049;-81
2023/10/03 09:59:54;;;;;;;13.68;6.00;;;;;;;23.97;62.21;95149.50;5035553;28;20029;-81
2023/10/03 10:02:30;;;;;;;16.85;5.60;;;;;;;24.11;63.91;95146.53;5035437;28;20022;-82
2023/10/03 10:04:59;;;;;;;17.38;5.65;;;;;;;23.93;63.11;95145.13;5020489;28;20083;-81
2023/10/03 10:07:29;;;;;;;14.23;6.15;;;;;;;23.82;61.93;95142.13;5036065;28;20554;-81
2023/10/03 10:10:13;;;;;;;10.85;5.25;;;;;;;23.97;62.18;95146.06;5035572;28;20393;-81
2023/10/03 10:13:13;;;;;;;14.05;6.18;;;;;;;24.12;62.14;95142.72;5035256;28;20056;-81
2023/10/03 10:16:01;;;;;;;11.43;5.20;;;;;;;24.25;62.93;95140.06;5013377;28;20041;-81
2023/10/03 10:18:44;;;;;;;11.57;5.57;;;;;;;24.34;62.79;95145.28;5036227;28;20036;-81
2023/10/03 10:21:22;;;;;;;;;;;;;;;24.42;62.16;95147.03;5035927;28;20033;-81
2023/10/03 10:24:25;;;;;;;17.67;5.93;;;;;;;24.37;63.10;95139.25;5035414;28;19913;-81
2023/10/03 10:26:59;;;;;;;12.80;5.68;;;;;;;24.37;62.84;95141.94;4943792;28;20031;-81
2023/10/03 10:29:25;;;;;;;14.55;5.72;;;;;;;24.57;63.34;95140.22;5011871;28;20132;-81
2023/10/03 10:31:58;;;;;;;12.93;6.03;;;;;;;24.56;61.61;95139.44;5035254;28;20040;-81
2023/10/03 10:34:26;;;;;;;;;;;;;;;24.52;63.46;95135.88;5035636;28;20032;-81
2023/10/03 10:37:28;;;;;;;9.65;5.40;;;;;;;24.78;62.55;95132.03;5035896;28;19916;-81
2023/10/03 10:39:58;;;;;;;14.07;6.00;;;;;;;24.87;60.08;95131.91;5025516;28;20436;-81
2023/10/03 10:42:26;;;;;;;14.60;5.72;;;;;;;24.61;62.28;95127.69;5039171;28;20040;-81
2023/10/03 10:45:04;;;;;;;13.05;5.75;;;;;;;24.55;62.03;95129.06;5038854;28;20034;-81
2023/10/03 10:47:44;;;;;;;12.48;5.32;;;;;;;24.91;62.47;95124.72;5039022;28;20449;-82
2023/10/03 10:50:09;;;;;;;9.95;5.32;;;;;;;24.76;60.47;95125.44;5039031;28;20033;-81
2023/10/03 10:52:56;;;;;;;13.68;5.47;;;;;;;25.07;62.30;95122.09;5038839;28;20442;-81
2023/10/03 10:55:22;;;;;;;12.27;5.43;;;;;;;25.06;61.63;95122.44;5038868;28;20466;-81
2023/10/03 10:58:03;;;;;;;12.45;5.53;;;;;;;25.14;60.99;95118.84;5038542;28;20044;-81
2023/10/03 11:00:29;;;;;;;14.18;5.80;;;;;;;24.87;60.97;95105.09;5038882;28;20025;-81
2023/10/03 11:02:54;;;;;;;15.63;5.70;;;;;;;24.86;60.66;95114.25;5022360;28;20031;-81
2023/10/03 11:05:20;;;;;;;17.75;5.95;;;;;;;24.64;61.13;95112.84;5022560;28;20385;-81
2023/10/03 11:07:49;;;;;;;10.52;5.57;;;;;;;24.77;60.83;95102.91;5022145;28;20438;-81
2023/10/03 11:10:17;;;;;;;11.10;5.25;;;;;;;24.96;60.84;95107.63;5039176;28;20141;-81
2023/10/03 11:12:42;;;;;;;11.43;4.95;;;;;;;25.12;59.54;95105.00;5054982;28;20040;-82
2023/10/03 11:15:12;;;;;;;11.10;5.18;;;;;;;25.36;58.29;95097.91;5038350;28;20438;-81
2023/10/03 11:17:38;;;;;;;11.95;5.63;;;;;;;25.36;58.47;95096.03;5021845;28;20450;-81
2023/10/03 11:20:08;;;;;;;11.90;5.35;;;;;;;25.31;58.05;95098.19;5038099;28;20045;-81
2023/10/03 11:22:40;;;;;;;12.88;5.50;;;;;;;25.07;58.34;95094.50;5038447;28;20053;-81
2023/10/03 11:25:09;;;;;;;12.45;5.55;;;;;;;24.84;58.72;95090.47;5038573;28;20450;-81
2023/10/03 11:27:36;;;;;;;10.70;5.22;;;;;;;24.65;57.55;95087.63;5038390;28;20033;-81
2023/10/03 11:30:14;;;;;;;8.85;5.10;;;;;;;24.93;58.72;95082.28;5039299;28;20033;-81
2023/10/03 11:32:39;;;;;;;13.98;5.00;;;;;;;25.16;59.43;95072.91;5038256;28;20052;-82
2023/10/03 11:35:20;;;;;;;11.30;5.45;;;;;;;25.48;59.14;95078.31;5041754;28;20029;-81